Tiempo atmosférico en la estación meteorológica de Écija, Sevilla (130 m.)



Fecha
DESCASC
Temp. máxima en grados centígrados (hora)
DESCASC
Temp. mínima en grados centígrados (hora)
DESCASC
Temp. media en grados centígrados
DESCASC
Racha de viento máxima en m/sg (hora)
DESCASC
Velocidad máxima media en intervalos de 10 minutos(hora)
DESCASC
Precipitaciones diarias en mm
DESCASC
Precipitaciones de 00:00 a 06:00 en mm
DESCASC
Precipitaciones de 06:00 a 12:00 en mm
DESCASC
Precipitaciones de 12:00 a 18:00 en mm
DESCASC
Precipitaciones de 18:00 a 24:00 en mm
DESCASC
05-04-2020 23.7 (15:20) 9.5 (08:30) 16.6 8.06 (14:10) 4.72 (01:10) 0 0 0 0 0
04-04-2020 -- (--) -- (--) -- -- (--) -- (--) -- -- 0 0 0
03-04-2020 -- (--) -- (--) -- -- (--) -- (--) -- -- -- -- --
02-04-2020 -- (--) -- (--) -- -- (--) -- (--) -- -- -- -- --
01-04-2020 -- (--) -- (--) -- -- (--) -- (--) -- -- -- -- --
31-03-2020 -- (--) -- (--) -- -- (--) -- (--) -- -- -- -- --
30-03-2020 -- (--) -- (--) -- 12.5 (17:40) 6.67 (17:40) 10.7 0 0 0 10.7
29-03-2020 -- (--) -- (--) -- 8.33 (23:20) 4.72 (23:20) 0 0 0 0 0
28-03-2020 -- (--) -- (--) -- 8.06 (15:20) 5.28 (15:30) 0 0 0 0 0
27-03-2020 -- (--) -- (--) -- -- (--) -- (--) -- 0 -- -- 0
26-03-2020 -- (--) -- (--) -- 10.83 (16:20) 6.11 (21:10) 0 0 0 0 0
25-03-2020 -- (--) -- (--) -- 7.78 (18:20) 4.72 (21:20) 0 0 0 0 0
24-03-2020 -- (--) -- (--) -- 9.17 (10:20) 6.11 (11:10) 0 0 0 0 0
23-03-2020 -- (--) -- (--) -- 7.78 (18:30) 5.28 (18:30) 2.8 0 0 0 2.8
22-03-2020 -- (--) -- (--) -- 5.56 (15:10) 3.33 (15:30) 2.2 1.1 1.1 0 0
21-03-2020 -- (--) -- (--) -- 10.28 (14:00) 6.67 (02:10) 25.5 17.2 0.1 4.1 4.1
20-03-2020 -- (--) -- (--) -- 10.83 (21:10) 6.39 (21:10) 0 0 0 0 0
19-03-2020 -- (--) -- (--) -- 7.78 (17:30) 5.28 (16:50) 0 0 0 0 0
18-03-2020 -- (--) -- (--) -- 6.94 (13:50) 3.89 (18:20) 0 0 0 0 0
17-03-2020 -- (--) -- (--) -- 6.11 (22:00) 3.61 (12:30) 1.5 0.4 1.1 0 0
16-03-2020 -- (--) -- (--) -- 10.28 (04:20) 6.39 (04:20) 0.2 0 0 0 0.2
15-03-2020 -- (--) -- (--) -- 8.61 (22:30) 5.56 (21:40) 0 0 0 0 0
14-03-2020 -- (--) -- (--) -- 6.11 (00:10) 4.72 (00:10) 0 0 0 0 0
13-03-2020 -- (--) -- (--) -- 6.67 (22:30) 4.44 (22:20) 0 0 0 0 0
12-03-2020 -- (--) -- (--) -- 8.33 (16:40) 4.72 (16:10) 0 0 0 0 0
11-03-2020 -- (--) -- (--) -- 4.44 (18:00) 2.5 (17:30) 0 0 0 0 0

Gráficas

Temp. máximas Temp. mínimas Temp. medias Precipitaciones Rachas de viento máximas Velocidades máximas media en intervalos de 10 minutos

Datos horarios

Fecha y hora oficial Temperatura (ºC) Velocidad del viento (km/h) Dirección del viento Racha (km/h) Dirección de racha Precipitación (mm) Presión (hPa) Tendencia (hPa) Humedad (%)
2020-04-09 23:00:00 15.3 0 Calma 7 Sur 0 1006.2 1.4 77
2020-04-09 22:00:00 15.6 4 Sudeste 8 Sudeste 0 1005.7 1.2 73
2020-04-09 21:00:00 16.4 5 Sudeste 8 Sur 0 1004.8 0.6 64
2020-04-09 20:00:00 17.4 7 Sur 13 Sudoeste 0 1004.8 0.6 57
2020-04-09 19:00:00 18 10 Sur 20 Sur 0 1004.5 0.4 56
2020-04-09 18:00:00 18.5 12 Sur 25 Sur 0 1004.2 -0.1 56
2020-04-09 17:00:00 19 16 Sur 25 Sur 0 1004.2 -0.5 52
2020-04-09 16:00:00 20.4 10 Sudoeste 15 Sur 0 1004.1 -0.9 51
2020-04-09 15:00:00 20.6 6 Sur 16 Sur 0 1004.3 -0.8 52
2020-04-09 14:00:00 20.1 9 Sur 19 Sur 0 1004.7 0 48
2020-04-09 13:00:00 18.8 11 Sur 18 Sur 0 1005 0.6 57
2020-04-09 12:00:00 17.7 5 Este 9 Este 0 1005.1 1.3 68
2020-04-09 11:00:00 17.1 4 Este 5 Nordeste 0 1004.7 1.4 70
2020-04-09 10:00:00 16 0 Calma 4 Sudeste 0 1004.4 1 76
2020-04-09 09:00:00 15.2 0 Calma 2 Nordeste 0 1003.8 0.6 79
2020-04-09 08:00:00 14.6 0 Calma 4 Este 0 1003.3 -0.1 77
2020-04-09 07:00:00 14.9 3 Este 13 Sudoeste 0 1003.4 -0.5 72
2020-04-09 06:00:00 15.6 8 Sudoeste 18 Sur 0 1003.2 -1.2 65
2020-04-09 05:00:00 15.5 8 Sur 15 Sudoeste 0 1003.4 -1.3 64
2020-04-09 04:00:00 15.7 9 Sudoeste 14 Sudoeste 0 1003.9 -1.2 63
2020-04-09 03:00:00 16.1 8 Sudoeste 15 Sudoeste 0 1004.4 -0.7 62
2020-04-09 02:00:00 16.4 5 Sur 15 Sur 0 1004.7 -0.3 63
2020-04-09 01:00:00 17.4 10 Sudoeste 23 Sur 0 1005.1 0.5 58
2020-04-09 00:00:00 17.9 15 Sur 24 Sur 0 1005.1 1.3 56
2020-04-08 23:00:00 17.7 11 Sur 19 Sur 0 1005 1.2 54
2020-04-08 22:00:00 18.3 4 Sudoeste 15 Sudoeste 0 1004.6 0.9 54
2020-04-08 21:00:00 19.5 12 Sudoeste 17 Sudoeste 0 1003.8 0 49
2020-04-08 20:00:00 21.2 11 Sur 23 Sur 0 1003.8 -0.2 47
2020-04-08 19:00:00 22.4 11 Sur 22 Sur 0 1003.7 -0.8 48
2020-04-08 18:00:00 22.3 14 Sur 25 Sur 0 1003.8 -1.3 49
2020-04-08 17:00:00 22.3 17 Sur 30 Sudoeste 0 1004 -1.8 48
2020-04-08 16:00:00 24.5 11 Sur 25 Sudeste 0 1004.5 -2.1 48
2020-04-08 15:00:00 22.8 13 Sudeste 24 Sudeste 0 1005.1 -1.8 51
2020-04-08 14:00:00 22.2 12 Sudeste 23 Sudeste 0 1005.8 -1.3 52
2020-04-08 13:00:00 21.8 13 Este 20 Sudeste 0 1006.6 -0.7 54
2020-04-08 12:00:00 20.3 9 Sudeste 17 Este 0 1006.9 -0.5 60
2020-04-08 11:00:00 17.4 2 Sudeste 11 Este 0 1007.1 -0.2 68
2020-04-08 10:00:00 15.5 5 Este 10 Sudeste 0 1007.3 0.2 81
2020-04-08 09:00:00 13.8 2 Este 9 Noroeste 0 1007.4 0.3 86
2020-04-08 08:00:00 12.1 6 Noroeste 10 Noroeste 0 1007.3 -0.4 85
2020-04-08 07:00:00 12.7 4 Noroeste 7 Noroeste 0 1007.1 -0.8 83
2020-04-08 06:00:00 13.1 2 Sur 9 Sur 0 1007.1 -1.3 79
2020-04-08 05:00:00 14.3 8 Sur 23 Sudoeste 0 1007.7 -0.9 75
2020-04-08 04:00:00 15.5 16 Sur 23 Sudoeste 0 1007.9 -0.4 74
2020-04-08 03:00:00 14.8 12 Sur 20 Sur 0 1008.4 0.4 79
2020-04-08 02:00:00 13.8 6 Sudoeste 17 Sur 0 1008.6 1 83
2020-04-08 01:00:00 14.5 9 Sudoeste 16 Sudoeste 0 1008.3 1.2 82
2020-04-08 00:00:00 15.7 10 Sudoeste 17 Sudoeste 0 1008 1.6 78
2020-04-07 23:00:00 16.9 12 Sudoeste 19 Sudoeste 0 1007.6 1.6 72
2020-04-07 22:00:00 18.1 11 Sudoeste 15 Sudoeste 0 1007.1 1.3 69
2020-04-07 21:00:00 19.7 10 Oeste 14 Oeste 0 1006.4 0.7 62
2020-04-07 20:00:00 24 4 Oeste 11 Noroeste 0 1006 -0.2 49
2020-04-07 19:00:00 25.4 4 Oeste 10 Oeste 0 1005.8 -0.8 43
2020-04-07 18:00:00 24.8 0 Calma 12 Noroeste 0 1005.7 -1.8 46
2020-04-07 17:00:00 24.9 3 Sur 16 Sudoeste 0 1006.2 -1.9 47
2020-04-07 16:00:00 23.8 5 Sudeste 18 Sudoeste 0 1006.6 -1.9 48
2020-04-07 15:00:00 23.8 9 Sur 21 Sur 0 1007.5 -1.1 51
2020-04-07 14:00:00 22.4 13 Sur 24 Sudeste 0 1008.1 -0.2 52
2020-04-07 13:00:00 21.6 13 Sur 23 Sur 0 1008.5 0.3 54
2020-04-07 12:00:00 20.5 11 Sur 24 Sudeste 0 1008.6 0.5 60
2020-04-07 11:00:00 19.3 6 Sudeste 11 Sur 0 1008.3 0.3 65
2020-04-07 10:00:00 16.8 2 Sudeste 5 Sudeste 0 1008.2 0.6 78
2020-04-07 09:00:00 15.2 0 Calma 5 Sur 0 1008.1 0.5 83
2020-04-07 08:00:00 14.8 4 Sur 10 Sudoeste 0 1008 0.4 81
2020-04-07 07:00:00 15.2 8 Sudoeste 16 Sudoeste 0 1007.6 -0.3 80
2020-04-07 06:00:00 15.2 9 Sudoeste 14 Sudoeste 0 1007.6 -0.4 86
2020-04-07 05:00:00 15.7 5 Sur 8 Sur 0 1007.6 -0.2 89
2020-04-07 04:00:00 16 3 Sudeste 8 Sudeste 0 1007.9 0.1 89
2020-04-07 03:00:00 16 2 Sudeste 7 Sudeste 0 1008 0.3 89
2020-04-07 02:00:00 16.2 3 Oeste 9 Sudoeste 0 1007.8 0.4 88
2020-04-07 01:00:00 16.7 6 Oeste 9 Oeste 0 1007.8 0.4 88
2020-04-07 00:00:00 16.3 0 Calma 5 Oeste 0 1007.7 1.4 86
2020-04-06 23:00:00 16.8 0 Calma 7 Noroeste 0 1007.4 1.2 84
2020-04-06 22:00:00 17.7 0 Calma 7 Norte 0 1007.4 1.3 81
2020-04-06 21:00:00 18.5 2 Nordeste 8 Norte 0 1006.3 0.1 77
2020-04-06 20:00:00 19.8 3 Nordeste 9 Este 0 1006.2 -0.6 73
2020-04-06 19:00:00 19.5 5 Este 8 Este 0 1006.1 -0.9 75
2020-04-06 18:00:00 20 4 Este 10 Sudoeste 0 1006.2 -0.9 74
2020-04-06 17:00:00 19.4 5 Oeste 21 Noroeste 0 1006.8 -0.4 78
2020-04-06 16:00:00 20.2 6 Noroeste 12 Oeste 0 1007 -0.2 65
2020-04-06 15:00:00 19.5 9 Noroeste 17 Noroeste 0 1007.1 -0.2 67
2020-04-06 14:00:00 20 4 Noroeste 11 Noroeste 0 1007.2 0.3 59
2020-04-06 13:00:00 19.1 2 Norte 10 Nordeste 0 1007.2 0.6 63
2020-04-06 12:00:00 17.4 5 Nordeste 10 Nordeste 0 1007.3 1.3 70
2020-04-06 11:00:00 15.4 0 Calma 6 Nordeste 0 1006.9 1.9 81
2020-04-06 10:00:00 14 2 Nordeste 9 Este 0.1 1006.6 2.3 88
2020-04-06 09:00:00 13.6 4 Nordeste 12 Noroeste 0.1 1006 1.8 85
2020-04-06 08:00:00 13.7 5 Noroeste 6 Noroeste 0 1005 0.9 81
2020-04-06 07:00:00 13.2 0 Calma 6 Sudeste 0 1004.3 -0.1 81
2020-04-06 06:00:00 13.3 5 Sudeste 9 Sudoeste 0 1004.2 -0.2 80
2020-04-06 05:00:00 13.3 7 Sur 13 Sur 0 1004.1 -0.6 79
2020-04-06 04:00:00 13.4 8 Sur 20 Sur 0 1004.4 0 78
2020-04-06 03:00:00 14.5 13 Sur 17 Sur 0 1004.4 0.4 77
2020-04-06 02:00:00 13.4 5 Sur 12 Sudoeste 0 1004.7 0.7 79
2020-04-06 01:00:00 13.4 9 Sudoeste 17 Sudoeste 0 1004.4 1.1 78
2020-04-06 00:00:00 14 13 Sudoeste 19 Sudoeste 0 1004 1.8 77
2020-04-05 23:00:00 13.8 10 Sudoeste 13 Sudoeste 0 1004 2.2 78
2020-04-05 22:00:00 14.5 7 Sur 10 Sudoeste 0 1003.3 1.8 74
2020-04-05 21:00:00 17.4 5 Sur 13 Sudoeste 0 1002.2 1 63
2020-04-05 20:00:00 20.1 13 Sur 22 Sur 0 1001.8 0.7 48
2020-04-05 19:00:00 20.7 15 Sur 24 Sur 0 1001.5 0.3 47
2020-04-05 18:00:00 21.7 9 Sudoeste 18 Sur 0 1001.2 -0.7 47
2020-04-05 17:00:00 22.3 6 Sudoeste 17 Sudoeste 0 1001.1 -1 46
2020-04-05 16:00:00 23.2 10 Sudoeste 26 Sur 0 1001.2 -1.8 42
2020-04-05 15:00:00 23.1 15 Sur 29 Sur 0 1001.9 -1.3 41
2020-04-05 14:00:00 21.9 15 Sur 24 Sur 0 1002.1 -1.1 42
2020-04-05 13:00:00 20.8 15 Sur 21 Sur 0 1003 0.2 44
2020-04-05 12:00:00 20.3 15 Sur 23 Sur 0 1003.2 0.6 46
2020-04-05 11:00:00 16.9 2 Este 8 Nordeste 0 1003.2 1.3 60
2020-04-05 10:00:00 15 3 Nordeste 6 Nordeste 0 1002.8 1.4 69
2020-04-05 09:00:00 11.6 3 Noroeste 6 Oeste 0 1002.6 1.6 84
2020-04-05 08:00:00 9.9 4 Norte 6 Sur 0 1001.9 1 80
2020-04-05 07:00:00 11.5 3 Sudeste 10 Sur 0 1001.4 0.5 74
2020-04-05 06:00:00 13.3 9 Sur 23 Sur 0 1001 -0.1 68
2020-04-05 05:00:00 13.7 14 Sur 21 Sur 0 1000.9 -0.3 67
2020-04-05 04:00:00 14.4 9 Sur 24 Sur 0 1000.9 -0.2 63
2020-04-05 03:00:00 14 14 Sur 20 Sur 0 1001.1 0.1 64
2020-04-05 02:00:00 13.8 5 Sur 28 Sur 0 1001.2 0.3 63
2020-04-05 01:00:00 14.7 15 Sur 23 Sur 0 1001.1 0.7 59
2020-04-05 00:00:00 13.9 11 Sur 17 Sur 0 1001 1.3 61
2020-04-04 23:00:00 14.5 6 Sudoeste 17 Sur 0 1000.9 1.5 57
2020-04-04 22:00:00 15.1 7 Sur 15 Sur 0 1000.4 1.3 60
2020-04-04 21:00:00 16.2 10 Sur 20 Sur 0 999.7 1.2 54
2020-04-04 20:00:00 17 15 Sur 25 Sur 0 999.4 1.3 53
2020-04-04 19:00:00 17.4 10 Sur 25 Sur 0 999.1 0.5 56
2020-04-04 18:00:00 17 10 Sur 18 Sur 0 998.5 -1 56
2020-04-04 17:00:00 16.9 4 Sudeste 42 Sudeste 0 998.1 -1.3 54
2020-04-04 16:00:00 16.8 20 Sudeste 41 Sur 0 998.6 -0.9 51
2020-04-04 15:00:00 18.9 17 Sur 35 Sudoeste 0 999.5 0.3 46
2020-04-04 14:00:00 18.7 19 Sur 38 Sur 0 999.4 0.5 44
2020-04-04 13:00:00 18.9 13 Sudoeste 27 Sur 0 999.5 0.9 47
2020-04-04 12:00:00 18 9 Sudeste 19 Sudeste 0 999.2 0.7 54
2020-04-04 11:00:00 15.5 7 Este 15 Este 0 998.9 0.5 65
2020-04-04 10:00:00 13.4 6 Este 10 Sudeste 0 998.6 0.2 79
2020-04-04 09:00:00 9.1 4 Sudeste 8 Sudeste 0 998.5 0 87
2020-04-04 08:00:00 7.3 3 Sudeste 5 Sur 0 998.4 -0.6 88
2020-04-04 07:00:00 7.6 2 Sudeste 8 Sudeste 0 998.4 -1 86
2020-04-04 06:00:00 8.1 3 Sudeste 5 Sudeste 0 998.5 -1.2 84
2020-04-04 05:00:00 8.9 0 Calma 9 Este 0 999 -1.1 81
2020-04-04 04:00:00 9.6 5 Este 10 Este 0 999.4 -1.2 82
2020-04-04 03:00:00 9.7 0 Calma 12 Sudeste 0 999.7 -1.1 79
2020-04-04 02:00:00 11.2 4 Este 11 Sudeste 0 1000.1 -0.3 75
2020-04-04 01:00:00 12.1 8 Sur 13 Sur 0 1000.6 0.8 73
2020-04-04 00:00:00 11.6 6 Sudoeste 10 Sudoeste 0 1000.8 1.5 73
2020-04-03 23:00:00 12.6 7 Sudoeste 11 Sur 0 1000.4 1.2 64
2020-04-03 22:00:00 14.3 7 Sur 18 Sudoeste 0 999.8 1 57
2020-04-03 21:00:00 16.8 10 Sudoeste 23 Sudoeste 0 999.3 0.4 52
2020-04-03 20:00:00 18.8 15 Sudoeste 23 Sudoeste 0 999.2 0 47
2020-04-03 19:00:00 20.7 7 Sudeste 16 Sur 0 998.8 -1.3 43
2020-04-03 18:00:00 21.7 5 Este 13 Este 0 998.9 -1.9 41
2020-04-03 17:00:00 21.3 8 Este 15 Este 0 999.2 -2.4 42
2020-04-03 16:00:00 20.9 6 Sudeste 15 Este 0 1000.1 -2.2 44
2020-04-03 15:00:00 19.9 4 Sudeste 13 Este 0 1000.8 -- 49
2020-04-03 14:00:00 18.6 6 Nordeste 15 Sudeste 0 1001.6 -- 51
2020-04-03 13:00:00 17.7 4 Sudeste -- -- -- 1002.3 -- 57
2020-04-03 12:00:00 -- -- -- -- -- -- -- -- --
2020-04-03 11:00:00 -- -- -- -- -- -- -- -- --
2020-04-03 10:00:00 -- -- -- -- -- -- -- -- --
2020-04-03 09:00:00 -- -- -- -- -- -- -- -- --
2020-04-03 08:00:00 -- -- -- -- -- -- -- -- --
2020-04-03 07:00:00 -- -- -- -- -- -- -- -- --
2020-04-03 06:00:00 -- -- -- -- -- -- -- -- --
2020-04-03 05:00:00 -- -- -- -- -- -- -- -- --
2020-04-03 04:00:00 -- -- -- -- -- -- -- -- --
2020-04-03 03:00:00 -- -- -- -- -- -- -- -- --
2020-04-03 02:00:00 -- -- -- -- -- -- -- -- --
2020-04-03 01:00:00 -- -- -- -- -- -- -- -- --
2020-04-03 00:00:00 -- -- -- -- -- -- -- -- --
2020-04-02 23:00:00 -- -- -- -- -- -- -- -- --
2020-04-02 22:00:00 -- -- -- -- -- -- -- -- --
2020-04-02 21:00:00 -- -- -- -- -- -- -- -- --
2020-04-02 20:00:00 -- -- -- -- -- -- -- -- --
2020-04-02 19:00:00 -- -- -- -- -- -- -- -- --
2020-04-02 18:00:00 -- -- -- -- -- -- -- -- --
2020-04-02 17:00:00 -- -- -- -- -- -- -- -- --
2020-04-02 16:00:00 -- -- -- -- -- -- -- -- --
2020-04-02 15:00:00 -- -- -- -- -- -- -- -- --
2020-04-02 14:00:00 -- -- -- -- -- -- -- -- --
2020-04-02 13:00:00 -- -- -- -- -- -- -- -- --
2020-04-02 12:00:00 -- -- -- -- -- -- -- -- --
2020-04-02 11:00:00 -- -- -- -- -- -- -- -- --
2020-04-02 10:00:00 -- -- -- -- -- -- -- -- --
2020-04-02 09:00:00 -- -- -- -- -- -- -- -- --
2020-04-02 08:00:00 -- -- -- -- -- -- -- -- --
2020-04-02 07:00:00 -- -- -- -- -- -- -- -- --
2020-04-02 06:00:00 -- -- -- -- -- -- -- -- --
2020-04-02 05:00:00 -- -- -- -- -- -- -- -- --
2020-04-02 04:00:00 -- -- -- -- -- -- -- -- --
2020-04-02 03:00:00 -- -- -- -- -- -- -- -- --
2020-04-02 02:00:00 -- -- -- -- -- -- -- -- --
2020-04-02 01:00:00 -- -- -- -- -- -- -- -- --
2020-04-02 00:00:00 -- -- -- -- -- -- -- -- --
2020-04-01 23:00:00 -- -- -- -- -- -- -- -- --
2020-04-01 22:00:00 -- -- -- -- -- -- -- -- --
2020-04-01 21:00:00 -- -- -- -- -- -- -- -- --
2020-04-01 20:00:00 -- -- -- -- -- -- -- -- --
2020-04-01 19:00:00 -- -- -- -- -- -- -- -- --
2020-04-01 18:00:00 -- -- -- -- -- -- -- -- --
2020-04-01 17:00:00 -- -- -- -- -- -- -- -- --
2020-04-01 16:00:00 -- -- -- -- -- -- -- -- --
2020-04-01 15:00:00 -- -- -- -- -- -- -- -- --
2020-04-01 14:00:00 -- -- -- -- -- -- -- -- --
2020-04-01 13:00:00 -- -- -- -- -- -- -- -- --
2020-04-01 12:00:00 -- -- -- -- -- -- -- -- --
2020-04-01 11:00:00 -- -- -- -- -- -- -- -- --
2020-04-01 10:00:00 -- 0 Calma -- -- 0 -- -- --
2020-04-01 09:00:00 -- 0 Calma -- -- 0 -- -- --
2020-04-01 08:00:00 -- 0 Calma -- -- 0 -- -- --
2020-04-01 07:00:00 -- 0 Calma -- -- 0 -- -- --
2020-04-01 06:00:00 -- 0 Calma -- -- 0 -- -- --
2020-04-01 05:00:00 -- 0 Calma -- -- 0 -- -- --
2020-04-01 04:00:00 -- 0 Calma -- -- 0 -- -- --
2020-04-01 03:00:00 -- 0 Calma -- -- 0 -- -- --
2020-04-01 02:00:00 -- 0 Calma -- -- 0 -- -- --
2020-04-01 01:00:00 -- 0 Calma -- -- 0 -- -- --
2020-04-01 00:00:00 -- 0 Calma -- -- 0 -- -- --
2020-03-31 23:00:00 -- 0 Calma -- -- 0 -- -- --
2020-03-31 22:00:00 -- 0 Calma -- -- 0 -- -- --
2020-03-31 21:00:00 -- 0 Calma -- -- 0 -- -- --
2020-03-31 20:00:00 -- 0 Calma -- -- 0 -- -- --
2020-03-31 19:00:00 -- 0 Calma -- -- 0 -- -- --
2020-03-31 18:00:00 -- 0 Calma -- -- 0 -- -- --
2020-03-31 17:00:00 -- 0 Calma -- -- 0 -- -- --
2020-03-31 16:00:00 -- 0 Calma -- -- 0 -- -- --
2020-03-31 15:00:00 -- 0 Calma -- -- 0 -- -- --
2020-03-31 14:00:00 -- 0 Calma -- -- 0 -- -- --
2020-03-31 13:00:00 -- 0 Calma -- -- 0 -- -- --
2020-03-31 12:00:00 -- 0 Calma -- -- -- -- -- --
2020-03-31 11:00:00 -- -- -- -- -- -- -- -- --
2020-03-31 10:00:00 -- 9 Sur 16 Sur 0 -- -- --
2020-03-31 09:00:00 -- 11 Sur 18 Sur 0 -- -- --
2020-03-31 08:00:00 -- 11 Sur 26 Sur 2.3 -- -- --
2020-03-31 07:00:00 -- 18 Sur 31 Sur 2 -- -- --
2020-03-31 06:00:00 -- 15 Sur 28 Sur 0 -- -- --
2020-03-31 05:00:00 -- 6 Sudeste 26 Sudeste 0 -- -- --
2020-03-31 04:00:00 -- 15 Este 23 Este 9.2 -- -- --
2020-03-31 03:00:00 -- 3 Este 11 Este 4.4 -- -- --
2020-03-31 02:00:00 -- 7 Este 11 Este 2.7 -- -- --
2020-03-31 01:00:00 -- 0 Calma 10 Nordeste 2.3 -- -- --
2020-03-31 00:00:00 -- 6 Norte 11 Sudeste 4.5 -- -- --
2020-03-30 23:00:00 -- 9 Sudeste 15 Este 1.7 -- -- --
2020-03-30 22:00:00 -- 5 Sudeste 11 Noroeste 1.7 -- -- --
2020-03-30 21:00:00 -- 9 Noroeste 23 Noroeste 1.8 -- -- --
2020-03-30 20:00:00 -- 15 Noroeste 27 Noroeste 0.8 -- -- --
2020-03-30 19:00:00 -- 16 Noroeste 32 Oeste 0.2 -- -- --
2020-03-30 18:00:00 -- 21 Oeste 45 Oeste 0 -- -- --
2020-03-30 17:00:00 -- 11 Oeste 21 Oeste 0 -- -- --
2020-03-30 16:00:00 -- 10 Sudoeste 19 Sudoeste 0 -- -- --
2020-03-30 15:00:00 -- 6 Oeste 17 Sudoeste 0 -- -- --
2020-03-30 14:00:00 -- 5 Oeste 14 Oeste 0 -- -- --
2020-03-30 13:00:00 -- 5 Oeste 14 Oeste 0 -- -- --
2020-03-30 12:00:00 -- 8 Sudoeste 15 Sudoeste 0 -- -- --
2020-03-30 11:00:00 -- 4 Este 7 Este 0 -- -- --
2020-03-30 10:00:00 -- 4 Sudoeste 10 Sudoeste 0 -- -- --
2020-03-30 09:00:00 -- 3 Sudoeste 5 Sudeste 0 -- -- --
2020-03-30 08:00:00 -- 0 Calma 8 Sudoeste 0 -- -- --
2020-03-30 07:00:00 -- 5 Sudoeste 7 Sudoeste 0 -- -- --
2020-03-30 06:00:00 -- 3 Sudoeste 9 Sudoeste 0 -- -- --
2020-03-30 05:00:00 -- 0 Calma 10 Oeste 0 -- -- --
2020-03-30 04:00:00 -- 5 Oeste 23 Oeste 0 -- -- --
2020-03-30 03:00:00 -- 14 Oeste 21 Sudoeste 0 -- -- --
2020-03-30 02:00:00 -- 13 Sudoeste 18 Sudoeste 0 -- -- --
2020-03-30 01:00:00 -- 11 Oeste 28 Oeste 0 -- -- --
2020-03-30 00:00:00 -- 14 Oeste 30 Oeste 0 -- -- --
2020-03-29 23:00:00 -- 13 Oeste 26 Oeste 0 -- -- --
2020-03-29 22:00:00 -- 13 Sudoeste 19 Oeste 0 -- -- --
2020-03-29 21:00:00 -- 7 Oeste 11 Oeste 0 -- -- --
2020-03-29 20:00:00 -- 6 Oeste 12 Oeste 0 -- -- --
2020-03-29 19:00:00 -- 3 Oeste 12 Oeste 0 -- -- --
2020-03-29 18:00:00 -- 3 Sudoeste 14 Sudoeste 0 -- -- --
2020-03-29 17:00:00 -- 3 Noroeste 13 Sur 0 -- -- --
2020-03-29 16:00:00 -- 4 Nordeste 13 Nordeste 0 -- -- --
2020-03-29 15:00:00 -- 6 Nordeste 12 Nordeste 0 -- -- --
2020-03-29 14:00:00 -- 3 Oeste 10 Nordeste 0 -- -- --
2020-03-29 13:00:00 -- 2 Noroeste 11 Sudoeste 0 -- -- --
2020-03-29 12:00:00 -- 3 Sudeste 8 Este 0 -- -- --
2020-03-29 11:00:00 -- 2 Este 8 Sudeste 0 -- -- --
2020-03-29 10:00:00 -- 4 Este 6 Sudeste 0 -- -- --
2020-03-29 09:00:00 -- 4 Sur 6 Sur 0 -- -- --
2020-03-29 08:00:00 -- 4 Sur 8 Sudeste 0 -- -- --
2020-03-29 07:00:00 -- 4 Sudeste 13 Sudoeste 0 -- -- --
2020-03-29 06:00:00 -- 7 Sudoeste 13 Sudoeste 0 -- -- --
2020-03-29 05:00:00 -- 10 Sudoeste 13 Sudoeste 0 -- -- --
2020-03-29 03:00:00 -- 8 Sudoeste 10 Sudoeste 0 -- -- --
2020-03-29 01:00:00 -- 3 Sudoeste 9 Sudoeste 0 -- -- --
2020-03-29 00:00:00 -- 7 Sur 14 Sudoeste 0 -- -- --
2020-03-28 23:00:00 -- 10 Sudoeste 19 Sudoeste 0 -- -- --
2020-03-28 22:00:00 -- 11 Sudoeste 19 Sudoeste 0 -- -- --
2020-03-28 21:00:00 -- 13 Sudoeste 19 Sudoeste 0 -- -- --
2020-03-28 20:00:00 -- 12 Sudoeste 17 Sur 0 -- -- --
2020-03-28 19:00:00 -- 12 Sur 17 Sur 0 -- -- --
2020-03-28 18:00:00 -- 5 Sudoeste 13 Sudoeste 0 -- -- --
2020-03-28 17:00:00 -- 8 Sur 22 Sur 0 -- -- --
2020-03-28 16:00:00 -- 16 Sur 29 Sur 0 -- -- --
2020-03-28 15:00:00 -- 7 Sudeste 12 Sudeste 0 -- -- --
2020-03-28 14:00:00 -- 3 Sur 18 Este 0 -- -- --
2020-03-28 13:00:00 -- 9 Este 17 Este 0 -- -- --
2020-03-28 12:00:00 -- 5 Sudeste 20 Este 0 -- -- --
2020-03-28 11:00:00 -- 8 Este 16 Este 0 -- -- --
2020-03-28 10:00:00 -- 5 Este 13 Este 0 -- -- --
2020-03-28 09:00:00 -- 4 Sudeste 7 Sur 0 -- -- --
2020-03-28 08:00:00 -- 3 Sudeste 7 Sudeste 0 -- -- --
2020-03-28 07:00:00 -- 0 Calma 4 Noroeste 0 -- -- --
2020-03-28 06:00:00 -- 0 Calma 5 Noroeste 0 -- -- --
2020-03-28 05:00:00 -- 0 Calma 4 Sur 0 -- -- --
2020-03-28 04:00:00 -- 0 Calma 6 Noroeste 0 -- -- --
2020-03-28 03:00:00 -- 3 Norte 8 Sudoeste 0 -- -- --
2020-03-28 02:00:00 -- 0 Calma 5 Sudoeste 0 -- -- --
2020-03-28 01:00:00 -- 2 Oeste 5 Oeste 0 -- -- --
2020-03-28 00:00:00 -- 3 Oeste 14 Oeste 0 -- -- --
2020-03-27 23:00:00 -- 9 Oeste 15 Oeste 0 -- -- --
2020-03-27 22:00:00 -- 12 Oeste 23 Oeste 0 -- -- --
2020-03-27 21:00:00 -- 10 Oeste 22 Oeste 0 -- -- --
2020-03-27 20:00:00 -- 10 Oeste 17 Oeste 0 -- -- --
2020-03-27 19:00:00 -- 9 Oeste 22 Oeste 0 -- -- --
2020-03-27 18:00:00 -- 13 Oeste 26 Oeste 0 -- -- --
2020-03-27 17:00:00 -- 13 Oeste 31 Sudoeste 0 -- -- --
2020-03-27 16:00:00 -- 18 Oeste 33 Oeste 0 -- -- --
2020-03-27 15:00:00 -- 18 Oeste 34 Oeste 0 -- -- --
2020-03-27 14:00:00 -- 19 Oeste 37 Sudoeste 0.1 -- -- --
2020-03-27 13:00:00 -- 0 Calma -- -- 0 -- -- --
2020-03-27 12:00:00 -- 0 Calma -- -- 0 -- -- --
2020-03-27 11:00:00 -- 0 Calma -- -- 0.3 -- -- --
2020-03-27 10:00:00 -- 12 Sudoeste 27 Oeste 0 -- -- --
2020-03-27 09:00:00 -- 10 Sudoeste 23 Oeste 0 -- -- --
2020-03-27 08:00:00 -- 5 Oeste 16 Sudoeste 0 -- -- --
2020-03-27 07:00:00 -- 11 Sudoeste 17 Sudoeste 0 -- -- --
2020-03-27 06:00:00 -- 12 Sudoeste 18 Sudoeste 0 -- -- --
2020-03-27 05:00:00 -- 13 Sudoeste 19 Sudoeste 0 -- -- --
2020-03-27 04:00:00 -- 15 Sudoeste 21 Sudoeste 0 -- -- --
2020-03-27 03:00:00 -- 11 Sudoeste 17 Sudoeste 0 -- -- --
2020-03-27 02:00:00 -- 3 Sudeste 10 Sur 0 -- -- --
2020-03-27 01:00:00 -- 9 Sudeste 24 Oeste 0 -- -- --
2020-03-27 00:00:00 -- 15 Oeste 26 Oeste 0 -- -- --
2020-03-26 23:00:00 -- 14 Oeste 29 Oeste 0 -- -- --
2020-03-26 22:00:00 -- 19 Oeste 31 Oeste 0 -- -- --
2020-03-26 21:00:00 -- 17 Oeste 28 Sudoeste 0 -- -- --
2020-03-26 20:00:00 -- 14 Oeste 26 Oeste 0 -- -- --
2020-03-26 19:00:00 -- 9 Oeste 31 Sudoeste 0 -- -- --
2020-03-26 18:00:00 -- 18 Oeste 33 Oeste 0 -- -- --
2020-03-26 17:00:00 -- 18 Oeste 39 Oeste 0 -- -- --
2020-03-26 16:00:00 -- 16 Oeste 34 Oeste 0 -- -- --
2020-03-26 15:00:00 -- 15 Oeste 33 Oeste 0 -- -- --
2020-03-26 14:00:00 -- 17 Oeste 30 Oeste 0 -- -- --
2020-03-26 13:00:00 -- 12 Oeste 26 Oeste 0 -- -- --
2020-03-26 12:00:00 -- 16 Sudoeste 30 Sudoeste 0 -- -- --
2020-03-26 11:00:00 -- 16 Oeste 31 Sudoeste 0 -- -- --
2020-03-26 10:00:00 -- 12 Oeste 26 Noroeste 0 -- -- --
2020-03-26 09:00:00 -- 6 Oeste 17 Oeste 0 -- -- --
2020-03-26 08:00:00 -- 8 Sudoeste 21 Oeste 0 998 0.1 96
2020-03-26 07:00:00 -- 12 Oeste 28 Sudoeste 0 997.7 -1 97
2020-03-26 06:00:00 -- 13 Oeste 22 Sudoeste 0 997.9 -1.3 94
2020-03-26 05:00:00 -- 9 Sudoeste 18 Sudoeste 0 997.9 -1.9 97
2020-03-26 04:00:00 -- 3 Sur 21 Oeste 0 998.7 -1.5 98
2020-03-26 03:00:00 -- 15 Sudoeste 23 Sudoeste 0 999.2 -1.4 98
2020-03-26 02:00:00 -- 9 Sudoeste 20 Sudoeste 0 999.8 -1 99
2020-03-26 01:00:00 -- 6 Sudoeste 15 Sur 0 1000.2 -0.4 99
2020-03-26 00:00:00 -- 8 Sudoeste 15 Sudoeste 0 1000.6 0.4 99
2020-03-25 23:00:00 -- 8 Sudoeste 16 Sudoeste 0 1000.8 1 99
2020-03-25 22:00:00 -- 11 Sudoeste 25 Sudoeste 0 1000.6 0.9 96
2020-03-25 21:00:00 -- 15 Sudoeste 22 Sudoeste 0 1000.2 1 89
2020-03-25 20:00:00 -- 9 Sudoeste 22 Sudeste 0 999.8 0.4 91
2020-03-25 19:00:00 -- 6 Sur 28 Oeste 0 999.7 0 80
2020-03-25 18:00:00 -- 13 Oeste 23 Oeste 0 999.2 -1.1 67
2020-03-25 17:00:00 -- 13 Sudoeste 25 Sudoeste 0 999.4 -1.6 64
2020-03-25 16:00:00 -- 9 Oeste 20 Oeste 0 999.7 -2.1 58
2020-03-25 15:00:00 -- 2 Sudoeste 15 Oeste 0 1000.3 -1.7 60
2020-03-25 14:00:00 -- 4 Noroeste 14 Noroeste 0 1001 -1 58
2020-03-25 13:00:00 -- 5 Noroeste 12 Oeste 0 1001.8 0.2 65
2020-03-25 12:00:00 -- 0 Calma 8 Sudoeste 0 1002 0.9 72
2020-03-25 11:00:00 -- 2 Sur 9 Este 0 1002 1.1 79
2020-03-25 10:00:00 -- 4 Nordeste 6 Nordeste 0 1001.6 1.3 78
2020-03-25 09:00:00 -- 3 Norte 5 Oeste 0 1001.1 1.2 82
2020-03-25 08:00:00 -- 5 Noroeste 7 Nordeste 0 1000.9 1.2 95
2020-03-25 07:00:00 -- 3 Nordeste 6 Nordeste 0 1000.3 0.9 89
2020-03-25 06:00:00 -- 0 Calma 5 Sudeste 0 999.9 0.4 91
2020-03-25 05:00:00 -- 3 Sudeste 9 Sur 0 999.7 0.2 87
2020-03-25 04:00:00 -- 5 Este 17 Este 0 999.4 0.3 81
2020-03-25 03:00:00 -- 3 Nordeste 11 Nordeste 0 999.5 0.5 79
2020-03-25 02:00:00 -- 4 Nordeste 15 Este 0 999.5 0.8 81
2020-03-25 01:00:00 -- 8 Este 15 Este 0 999.1 1.4 77
2020-03-25 00:00:00 -- 6 Este 12 Este 0 999 2.3 80
2020-03-24 23:00:00 -- 2 Nordeste 10 Norte 0 998.7 3 77
2020-03-24 22:00:00 -- 2 Este 14 Nordeste 0 997.7 2.6 79
2020-03-24 21:00:00 -- 5 Nordeste 12 Este 0 996.7 2.3 68
2020-03-24 20:00:00 -- 3 Nordeste 14 Este 0 995.7 1.7 74
2020-03-24 19:00:00 -- 9 Nordeste 23 Este 0 995.1 1.1 58
2020-03-24 18:00:00 -- 18 Este 30 Este 0 994.4 0.3 51
2020-03-24 17:00:00 -- 15 Nordeste 31 Este 0 994 -0.8 52
2020-03-24 16:00:00 -- 18 Nordeste 30 Este 0 994 -1.4 49
2020-03-24 15:00:00 -- 14 Nordeste 30 Nordeste 0 994.1 -1.3 54
2020-03-24 14:00:00 -- 16 Nordeste 26 Este 0 994.8 -0.6 56
2020-03-24 13:00:00 -- 14 Este 28 Nordeste 0 995.4 0.3 64
2020-03-24 12:00:00 -- 18 Este 31 Este 0 995.4 0.4 65
2020-03-24 11:00:00 -- 20 Este 33 Nordeste 0 995.4 0.3 75
2020-03-24 10:00:00 -- 10 Este 26 Este 0 995.1 0.5 80
2020-03-24 09:00:00 17.2 2 Este 7 Este 0 995 0.4 82
2020-03-24 08:00:00 15 3 Nordeste 9 Nordeste 0 995.1 0.5 91
2020-03-24 07:00:00 14.9 0 Calma 8 Nordeste 0 994.6 -0.4 93
2020-03-24 06:00:00 15.2 3 Norte 6 Norte 0 994.6 -1 99
2020-03-24 05:00:00 15 5 Norte 9 Norte 0 994.6 -1.6 99
2020-03-24 04:00:00 15.4 5 Norte 8 Noroeste 0 995 -1.8 99
2020-03-24 03:00:00 15.3 3 Norte 6 Norte 0 995.6 -1.5 99
2020-03-24 02:00:00 14.7 2 Norte 9 Noroeste 0 996.2 -1.2 99
2020-03-24 01:00:00 16 4 Noroeste 9 Norte 0 996.8 -0.8 99
2020-03-24 00:00:00 16.1 3 Nordeste 9 Norte 0 997.1 -0.5 99
2020-03-23 23:00:00 16.1 4 Norte 11 Nordeste 0.1 997.4 0.5 99
2020-03-23 22:00:00 16 4 Nordeste 12 Este 2.7 997.6 1.3 99
2020-03-23 21:00:00 16.1 8 Este 17 Este 0 997.6 1.7 92
2020-03-23 20:00:00 16.3 8 Este 20 Este 0 996.9 1.3 89
2020-03-23 19:00:00 18.3 13 Sudeste 28 Sudeste 0 996.3 1 76
2020-03-23 18:00:00 19.7 15 Sur 27 Sur 0 995.9 -0.1 71
2020-03-23 17:00:00 20.5 9 Sudoeste 22 Sudeste 0 995.6 -1.3 76
2020-03-23 16:00:00 22.2 11 Este 17 Este 0 995.3 -2.4 66
2020-03-23 15:00:00 23.4 9 Este 20 Este 0 996 -2.4 57
2020-03-23 14:00:00 22 8 Este 22 Nordeste 0 996.9 -1.9 63
2020-03-23 13:00:00 22.9 8 Este 18 Sudeste 0 997.7 -1.2 59
2020-03-23 12:00:00 20.2 10 Sudeste 18 Sudeste 0 998.4 -0.2 72
2020-03-23 11:00:00 19.8 6 Este 15 Este 0 998.8 0.5 79
2020-03-23 10:00:00 17.5 5 Este 8 Sudeste 0 998.9 1 91
2020-03-23 09:00:00 10.4 5 Sudeste 7 Sur 0 998.6 0.9 94
2020-03-23 08:00:00 8 3 Sur 4 Sudeste 0 998.3 0.7 99
2020-03-23 07:00:00 7.1 2 Sudoeste 5 Sur 0 997.9 0.4 99
2020-03-23 06:00:00 8 0 Calma 4 Sudoeste 0 997.7 -0.2 99
2020-03-23 05:00:00 7.8 2 Sur 4 Sudeste 0 997.6 -0.4 99
2020-03-23 04:00:00 7.6 0 Calma 6 Sudeste 0 997.5 -0.6 99
2020-03-23 03:00:00 7.1 4 Sur 6 Sur 0 997.9 -0.4 99
2020-03-23 02:00:00 7.3 3 Sudeste 7 Sur 0 998 -0.3 99
2020-03-23 01:00:00 7.5 0 Calma 4 Sur 0 998.1 0.2 97
2020-03-23 00:00:00 8.3 2 Sudoeste 7 Sudoeste 0 998.3 0.8 99
2020-03-22 23:00:00 8.4 4 Sudoeste 8 Sudoeste 0 998.3 1.2 97
2020-03-22 22:00:00 9.4 4 Sur 9 Oeste 0 997.9 1.4 96
2020-03-22 21:00:00 10.2 6 Oeste 9 Oeste 0 997.5 1.6 89
2020-03-22 20:00:00 12 8 Sudoeste 9 Oeste 0 997.1 1.5 84
2020-03-22 19:00:00 15.4 3 Sur 6 Este 0 996.5 0.5 75
2020-03-22 18:00:00 16.7 0 Calma 7 Oeste 0 995.9 -0.6 65
2020-03-22 17:00:00 16 2 Oeste 10 Norte 0 995.6 -0.9 64
2020-03-22 16:00:00 14.4 5 Sur 20 Sudoeste 0 996 -0.9 74
2020-03-22 15:00:00 13.3 9 Sur 15 Sudeste 0 996.5 -0.9 78
2020-03-22 14:00:00 14.9 5 Norte 18 Nordeste 0 996.5 -0.8 69
2020-03-22 13:00:00 14.1 5 Norte 13 Este 0 996.9 0.1 82
2020-03-22 12:00:00 12.6 6 Norte 12 Nordeste 0.3 997.4 1 92
2020-03-22 11:00:00 11.6 5 Norte 10 Norte 0.5 997.3 1.4 97
2020-03-22 10:00:00 11.2 4 Este 7 Este 0.3 996.8 1.3 94
2020-03-22 09:00:00 10.3 3 Este 6 Este 0 996.4 1 98
2020-03-22 08:00:00 9.5 0 Calma 2 Oeste 0 995.9 0.6 99
2020-03-22 07:00:00 9.2 0 Calma 3 Este 0 995.5 0.3 99
2020-03-22 06:00:00 8.9 3 Noroeste 5 Noroeste 0 995.4 -0.2 99
2020-03-22 05:00:00 8.9 0 Calma 4 Nordeste 0 995.3 -0.9 99
2020-03-22 04:00:00 8.7 0 Calma 5 Noroeste 0 995.2 -1.5 99
2020-03-22 03:00:00 8.6 3 Norte 10 Sudeste 0.1 995.6 -1.4 99
2020-03-22 02:00:00 9.2 5 Sudeste 10 Sur 0.2 996.2 -0.9 99
2020-03-22 01:00:00 9 2 Sur 7 Sudeste 0.8 996.7 -0.4 99
2020-03-22 00:00:00 8.2 6 Sudeste 9 Sudeste 0 997 0.5 99
2020-03-21 23:00:00 8.5 3 Sur 9 Sudoeste 0 997.1 1 99
2020-03-21 22:00:00 8.5 8 Sudoeste 12 Sudoeste 0 997.1 1.5 98
2020-03-21 21:00:00 9.3 5 Sudeste 13 Sur 0 996.5 0.9 98
2020-03-21 20:00:00 10.5 6 Oeste 36 Oeste 1.2 996.1 0.8 94
2020-03-21 19:00:00 10.8 19 Sudoeste 30 Oeste 2.9 995.6 -0.7 88
2020-03-21 18:00:00 13 12 Sudoeste 30 Sudeste 0.1 995.6 -1.2 80
2020-03-21 17:00:00 14.1 11 Sudeste 19 Sudeste 0.4 995.3 -2.3 83
2020-03-21 16:00:00 12.4 9 Sur 22 Oeste 0.9 996.3 -1.8 87
2020-03-21 15:00:00 12.7 17 Oeste 35 Oeste 0.2 996.8 -1.8 87
2020-03-21 14:00:00 13.3 17 Oeste 37 Sudoeste 0.9 997.6 -1.5 84
2020-03-21 13:00:00 14.2 11 Sudoeste 25 Sudoeste 1.6 998.1 -1.1 86
2020-03-21 12:00:00 15.9 12 Sudoeste 22 Sur 0 998.6 -0.5 64
2020-03-21 11:00:00 14.7 8 Sur 19 Sur 0 999.1 0.2 73
2020-03-21 10:00:00 13.3 11 Sur 15 Sudoeste 0 999.2 0.9 81
2020-03-21 09:00:00 11.1 7 Sur 12 Sur 0 999.1 0.8 98
2020-03-21 08:00:00 8.8 5 Sur 9 Sudoeste 0.1 998.9 0.7 99
2020-03-21 07:00:00 10.5 6 Sudoeste 16 Sudoeste 0 998.3 0.1 97
2020-03-21 06:00:00 10.9 12 Sudoeste 19 Sudoeste 0 998.3 -0.2 97
2020-03-21 05:00:00 11.2 15 Sudoeste 22 Oeste 2.4 998.2 0.5 96
2020-03-21 04:00:00 11.2 7 Sudoeste 28 Sudoeste 6.7 998.2 1 98
2020-03-21 03:00:00 11.8 16 Sudoeste 36 Sudoeste 7.2 998.5 0.7 99
2020-03-21 02:00:00 14.3 19 Sudoeste 32 Sur 0.8 997.7 -0.4 90
2020-03-21 01:00:00 15.3 16 Sur 32 Sur 0.1 997.2 -0.7 78
2020-03-21 00:00:00 15.2 14 Sur 24 Sur 0 997.8 0 80
2020-03-20 23:00:00 15.6 9 Sur 23 Sur 0 998.1 1.1 74
2020-03-20 22:00:00 15.6 17 Sur 39 Sur 0 997.9 1 73
2020-03-20 21:00:00 16.5 22 Sur 35 Sur 0 997.8 0.9 67
2020-03-20 20:00:00 17.8 13 Sur 23 Sur 0 997 -0.4 62
2020-03-20 19:00:00 18.9 13 Sur 23 Sur 0 996.9 -1.2 58
2020-03-20 18:00:00 19.6 13 Sur 22 Sur 0 996.9 -1.6 56
2020-03-20 17:00:00 20.3 10 Sur 26 Sur 0 997.4 -1.7 55
2020-03-20 16:00:00 19.4 18 Sur 30 Sur 0 998.1 -1.7 58
2020-03-20 15:00:00 20.3 16 Sudeste 32 Sudeste 0 998.5 -1.7 55
2020-03-20 14:00:00 20.2 14 Sudeste 26 Sudeste 0 999.1 -1 60
2020-03-20 13:00:00 17 12 Sur 33 Sur 0 999.8 -0.7 73
2020-03-20 12:00:00 18.7 12 Sudeste 25 Sudeste 0 1000.2 0 67
2020-03-20 11:00:00 17.1 16 Sudeste 24 Sudeste 0 1000.1 0.4 71
2020-03-20 10:00:00 16 14 Sudeste 22 Sudeste 0 1000.5 1.3 76
2020-03-20 09:00:00 12.8 4 Nordeste 9 Sudeste 0 1000.2 0.9 85
2020-03-20 08:00:00 10.7 7 Este 14 Este 0 999.7 0.3 94
2020-03-20 07:00:00 11.6 5 Sudeste 11 Sudeste 0 999.2 -0.3 88
2020-03-20 06:00:00 12.2 4 Sudoeste 11 Sur 0 999.3 -0.8 87
2020-03-20 05:00:00 12.4 6 Sudoeste 16 Sur 0 999.4 -1 85
2020-03-20 04:00:00 13.3 5 Sudoeste 17 Sur 0 999.5 -1 86
2020-03-20 03:00:00 13.4 10 Sur 15 Sur 0 1000.1 -0.6 83
2020-03-20 02:00:00 14.9 10 Sur 25 Sur 0 1000.4 -0.2 78
2020-03-20 01:00:00 15.6 13 Sur 24 Sur 0 1000.5 0.6 76
2020-03-20 00:00:00 15.3 11 Sur 23 Sur 0 1000.7 1.1 77
2020-03-19 23:00:00 15 6 Sur 23 Sur 0 1000.6 0.9 78
2020-03-19 22:00:00 15.7 18 Sur 26 Sur 0 999.9 0.2 73
2020-03-19 21:00:00 15.7 14 Sur 21 Sur 0 999.6 0.2 71
2020-03-19 20:00:00 16.8 12 Sur 19 Sur 0 999.7 0 67
2020-03-19 19:00:00 17.8 13 Sur 25 Sur 0 999.7 -0.3 65
2020-03-19 18:00:00 18.8 16 Sur 28 Sur 0 999.4 -1.1 62
2020-03-19 17:00:00 19.5 18 Sur 27 Sur 0 999.7 -1.8 61
2020-03-19 16:00:00 21.4 12 Sur 24 Sudeste 0 1000 -2.3 56
2020-03-19 15:00:00 21.3 13 Sudeste 26 Sudeste 0 1000.5 -2.6 61
2020-03-19 14:00:00 21.4 16 Sudeste 27 Sudeste 0 1001.5 -2 58
2020-03-19 13:00:00 19.8 7 Sudeste 27 Sudeste 0 1002.3 -1.6 59
2020-03-19 12:00:00 19.4 16 Sudeste 24 Nordeste 0 1003.1 -0.7 62
2020-03-19 11:00:00 17.7 15 Este 25 Sudeste 0 1003.5 -0.1 71
2020-03-19 10:00:00 15.7 11 Este 17 Este 0 1003.9 0.1 80
2020-03-19 09:00:00 12.5 9 Sudeste 14 Este 0 1003.8 0.1 94
2020-03-19 08:00:00 10.4 4 Sudeste 9 Sudeste 0 1003.6 -0.2 97
2020-03-19 07:00:00 10.1 6 Sudeste 9 Sur 0 1003.8 -0.3 98
2020-03-19 06:00:00 10.3 6 Sudeste 11 Sudeste 0 1003.7 -0.8 98
2020-03-19 05:00:00 10.7 6 Sudeste 10 Sudeste 0 1003.8 -0.5 93
2020-03-19 04:00:00 11.3 0 Calma 7 Sudeste 0 1004.1 -0.4 91
2020-03-19 03:00:00 11.3 0 Calma 5 Noroeste 0 1004.5 0.2 89
2020-03-19 02:00:00 13 0 Calma 10 Sur 0 1004.3 0 86
2020-03-19 01:00:00 13.3 0 Calma 8 Este 0 1004.5 0.7 84
2020-03-19 00:00:00 13.4 0 Calma 12 Sur 0 1004.3 1 82
2020-03-18 23:00:00 13.4 9 Sur 13 Sudoeste 0 1004.3 1.5 83
2020-03-18 22:00:00 15.3 10 Sudoeste 23 Sudoeste 0 1003.8 1.4 75
2020-03-18 21:00:00 15.9 5 Sudoeste 14 Sur 0 1003.3 1.1 71
2020-03-18 20:00:00 18.3 8 Sudoeste 18 Sudoeste 0 1002.8 0.7 59
2020-03-18 19:00:00 20 13 Sudoeste 21 Sudoeste 0 1002.4 -0.2 56
2020-03-18 18:00:00 22.6 12 Sudoeste 18 Sudoeste 0 1002.2 -0.9 51
2020-03-18 17:00:00 23.7 11 Sur 19 Sur 0 1002.1 -1.6 48
2020-03-18 16:00:00 23.9 10 Sur 20 Sudeste 0 1002.6 -2.1 52
2020-03-18 15:00:00 24 6 Sur 17 Este 0 1003.1 -2 47
2020-03-18 14:00:00 23.3 6 Sur 25 Este 0 1003.7 -1.6 50
2020-03-18 13:00:00 22.4 8 Este 17 Sudeste 0 1004.7 -0.4 51
2020-03-18 12:00:00 20.7 8 Sudeste 19 Este 0 1005.1 0.3 60
2020-03-18 11:00:00 19.2 12 Este 20 Este 0 1005.3 0.9 65
2020-03-18 10:00:00 17.2 6 Este 12 Sudeste 0 1005.1 1.2 71
2020-03-18 09:00:00 13.8 0 Calma 5 Norte 0 1004.8 1.8 80
2020-03-18 08:00:00 11.1 0 Calma 15 Sudoeste 0 1004.4 1.1 90
2020-03-18 07:00:00 11 8 Sur 14 Sur 0 1003.9 0.2 91
2020-03-18 06:00:00 9.9 2 Nordeste 12 Sur 0 1003 -1.3 95
2020-03-18 05:00:00 9.6 4 Sur 7 Sur 0 1003.3 -1.5 96
2020-03-18 04:00:00 9.8 4 Sudeste 6 Sudeste 0 1003.7 -1 94
2020-03-18 03:00:00 10.7 3 Norte 7 Oeste 0 1004.3 0.2 91
2020-03-18 02:00:00 10.3 2 Oeste 10 Sudoeste 0 1004.8 0.9 94
2020-03-18 01:00:00 11 6 Sur 9 Sur 0 1004.7 0.6 89
2020-03-18 00:00:00 13.4 4 Este 22 Este 0 1004.1 -0.5 78
2020-03-17 23:00:00 14.1 9 Este 21 Este 0 1003.9 -0.6 72
2020-03-17 22:00:00 14.4 12 Nordeste 22 Nordeste 0 1004.1 -0.2 74
2020-03-17 21:00:00 12.8 5 Noroeste 9 Noroeste 0 1004.6 0.5 78
2020-03-17 20:00:00 15.9 0 Calma 5 Norte 0 1004.5 0.2 71
2020-03-17 19:00:00 16.9 3 Nordeste 6 Nordeste 0 1004.3 0 59
2020-03-17 18:00:00 17.8 3 Sudeste 8 Sur 0 1004.1 -0.4 59
2020-03-17 17:00:00 17.6 4 Sur 12 Sudeste 0 1004.3 -0.9 57
2020-03-17 16:00:00 18.4 6 Este 10 Este 0 1004.3 -1.3 51
2020-03-17 15:00:00 17.1 5 Sudeste 13 Este 0 1004.5 -1.4 53
2020-03-17 14:00:00 16.1 5 Este 16 Sudeste 0 1005.2 -0.4 64
2020-03-17 13:00:00 15.6 11 Este 21 Sudeste 0 1005.6 0.1 61
2020-03-17 12:00:00 14.6 9 Sudeste 17 Sur 0 1005.9 1.4 73
2020-03-17 11:00:00 11.6 9 Este 17 Este 0 1005.6 1.5 84
2020-03-17 10:00:00 10.4 7 Sudeste 10 Sudeste 0 1005.5 2.1 89
2020-03-17 09:00:00 9.1 3 Este 8 Nordeste 0.2 1004.5 1.7 93
2020-03-17 08:00:00 8.3 6 Este 15 Sudeste 0.2 1004.1 1.8 99
2020-03-17 07:00:00 8.4 8 Este 14 Este 0.7 1003.4 1.6 99
2020-03-17 06:00:00 8.7 6 Este 10 Sudeste 0.3 1002.8 0.7 98
2020-03-17 05:00:00 8.7 3 Sudeste 6 Este 0 1002.3 0.5 99
2020-03-17 04:00:00 8.5 5 Sudeste 7 Sur 0 1001.8 -0.1 98
2020-03-17 03:00:00 8.9 5 Sudoeste 9 Sur 0.1 1002.1 0 98
2020-03-17 02:00:00 8.9 3 Sur 7 Oeste 0 1001.8 0 96
2020-03-17 01:00:00 8.8 4 Sudoeste 11 Sudoeste 0 1001.9 0.5 95
2020-03-17 00:00:00 8.5 8 Sudoeste 11 Sudoeste 0 1002.1 0.9 95
2020-03-16 23:00:00 8.4 6 Oeste 14 Oeste 0 1001.8 1.2 93
2020-03-16 22:00:00 9.1 10 Oeste 23 Oeste 0.1 1001.4 1.4 91
2020-03-16 21:00:00 10 15 Oeste 23 Oeste 0.1 1001.2 1.4 82
2020-03-16 20:00:00 10.9 9 Noroeste 22 Noroeste 0 1000.6 1.1 78
2020-03-16 19:00:00 11.9 3 Noroeste 13 Norte 0 1000 0.5 73
2020-03-16 18:00:00 11.7 11 Norte 33 Norte 0 999.8 0.1 68
2020-03-16 17:00:00 13.5 10 Noroeste 26 Noroeste 0 999.5 -0.5 45
2020-03-16 16:00:00 14.4 12 Noroeste 26 Noroeste 0 999.5 -1 43
2020-03-16 15:00:00 14.3 16 Noroeste 35 Oeste 0 999.7 -1.2 43
2020-03-16 14:00:00 14.4 17 Noroeste 30 Oeste 0 1000 -1.4 43
2020-03-16 13:00:00 14.8 13 Oeste 27 Oeste 0 1000.5 -1 41
2020-03-16 12:00:00 13.4 12 Noroeste 27 Noroeste 0 1000.9 -0.7 46
2020-03-16 11:00:00 12.5 10 Noroeste 23 Noroeste 0 1001.4 0.1 49
2020-03-16 10:00:00 -- 9 Noroeste 18 Noroeste 0 1001.5 1 52
2020-03-16 09:00:00 -- 11 Norte 17 Norte 0 1001.6 1.8 58
2020-03-16 08:00:00 -- 5 Norte 14 Norte 0 1001.3 2 70
2020-03-16 07:00:00 -- 9 Norte 18 Norte 0 1000.5 1.9 57
2020-03-16 06:00:00 -- 10 Norte 19 Norte 0 999.8 1.2 60
2020-03-16 05:00:00 -- 10 Norte 37 Norte 0 999.3 0.8 60
2020-03-16 04:00:00 -- 18 Norte 34 Norte 0 998.6 0 58
2020-03-16 03:00:00 -- 21 Norte 32 Noroeste 0 998.6 -0.7 57
2020-03-16 02:00:00 -- 14 Oeste 35 Sudoeste 0 998.5 -0.9 85
2020-03-16 01:00:00 -- 18 Sudoeste 32 Sudoeste 0 998.6 -0.4 87
2020-03-16 00:00:00 -- 15 Sudoeste 30 Sudoeste 0 999.3 0.9 85
2020-03-15 23:00:00 -- 19 Sudoeste 31 Sudoeste 0 999.4 1.6 80
2020-03-15 22:00:00 -- 19 Oeste 30 Oeste 0 999 1.5 76
2020-03-15 21:00:00 -- 9 Sudoeste 12 Sudoeste 0 998.4 0.4 72
2020-03-15 20:00:00 -- 4 Sudoeste 14 Oeste 0 997.8 -0.7 70
2020-03-15 19:00:00 -- 11 Oeste 14 Oeste 0 997.5 -1.7 64
2020-03-15 18:00:00 -- 7 Oeste 19 Sudoeste 0 998 -1.6 58
2020-03-15 17:00:00 -- 8 Oeste 21 Sudoeste 0 998.5 -1.9 56
2020-03-15 16:00:00 -- 10 Sudoeste 19 Oeste 0 999.2 -2.3 53
2020-03-15 15:00:00 -- 9 Oeste 21 Oeste 0 999.6 -2.4 49
2020-03-15 14:00:00 -- 8 Sudoeste 20 Sudoeste 0 1000.4 -2.1 61
2020-03-15 13:00:00 -- 7 Sur 14 Sur 0 1001.5 -1.1 68
2020-03-15 12:00:00 -- 0 Calma 6 Nordeste 0 1002 -0.3 73
2020-03-15 11:00:00 -- 3 Sur 9 Sudeste 0 1002.5 0.7 80
2020-03-15 10:00:00 -- 4 Sudeste 6 Sudeste 0 1002.6 0.9 89
2020-03-15 09:00:00 -- 2 Sudeste 8 Sudeste 0 1002.3 0.7 97
2020-03-15 08:00:00 -- 0 Calma 4 Noroeste 0 1001.8 0.4 96
2020-03-15 07:00:00 -- 3 Norte 9 Sur 0 1001.7 0.2 97
2020-03-15 06:00:00 -- 6 Sur 18 Sur 0 1001.6 -0.4 94
2020-03-15 05:00:00 -- 2 Sudeste 15 Sur 0 1001.4 -1.1 94
2020-03-15 04:00:00 -- 2 Sur 7 Sur 0 1001.5 -1.1 95
2020-03-15 03:00:00 -- 5 Sur 13 Sudoeste 0 1002 -0.9 94
2020-03-15 02:00:00 -- 10 Sudoeste 13 Sudoeste 0 1002.5 -0.2 92
2020-03-15 01:00:00 -- 4 Este 8 Sudeste 0 1002.6 0 92
2020-03-15 00:00:00 -- 4 Sudeste 13 Sudoeste 0 1002.9 0.7 90
2020-03-14 23:00:00 -- 0 Calma 9 Noroeste 0 1002.7 0.9 90
2020-03-14 22:00:00 -- 5 Oeste 10 Oeste 0 1002.6 1 91
2020-03-14 21:00:00 -- 5 Oeste 12 Oeste 0 1002.2 0.5 87
2020-03-14 20:00:00 -- 10 Oeste 13 Oeste 0 1001.8 -0.1 82
2020-03-14 19:00:00 -- 6 Oeste 10 Oeste 0 1001.6 -1 68
2020-03-14 18:00:00 -- 6 Oeste 11 Sudoeste 0 1001.7 -1.7 59
2020-03-14 17:00:00 -- 6 Noroeste 13 Noroeste 0 1001.9 -2.5 57
2020-03-14 16:00:00 -- 4 Norte 11 Sudoeste 0 1002.6 -2.9 59
2020-03-14 15:00:00 -- 4 Oeste 10 Noroeste 0 1003.4 -2.7 61
2020-03-14 14:00:00 -- 3 Noroeste 9 Nordeste 0 1004.4 -1.8 71
2020-03-14 13:00:00 -- 2 Este 17 Este 0 1005.5 -0.5 82
2020-03-14 12:00:00 -- 3 Oeste 7 Noroeste 0 1006.1 0.5 91
2020-03-14 11:00:00 -- 4 Norte 10 Norte 0 1006.2 1.2 96
2020-03-14 10:00:00 -- 3 Noroeste 9 Oeste 0 1006 1.5 99
2020-03-14 09:00:00 -- 4 Noroeste 8 Noroeste 0 1005.6 1.3 99
2020-03-14 08:00:00 -- 2 Oeste 10 Sur 0 1005 0.9 99
2020-03-14 07:00:00 -- 3 Sur 5 Sur 0 1004.5 0.5 99
2020-03-14 06:00:00 -- 3 Sur 6 Oeste 0 1004.3 0.1 99
2020-03-14 05:00:00 -- 0 Calma 5 Sudoeste 0 1004.1 -0.1 99
2020-03-14 04:00:00 -- 0 Calma 5 Sur 0 1004 -0.1 98
2020-03-14 03:00:00 -- 0 Calma 12 Sudoeste 0 1004.2 0.5 98
2020-03-14 02:00:00 -- 0 Calma 12 Sur 0 1004.2 0.8 94
2020-03-14 01:00:00 -- 4 Sudeste 22 Oeste 0 1004.1 0.8 94
2020-03-14 00:00:00 -- 13 Sudoeste 20 Sudoeste 0 1003.7 0.9 92
2020-03-13 23:00:00 -- 10 Oeste 24 Oeste 0 1003.4 1.3 88
2020-03-13 22:00:00 -- 12 Oeste 17 Oeste 0 1003.3 1.5 88
2020-03-13 21:00:00 -- 8 Oeste 15 Oeste 0 1002.8 1.5 86
2020-03-13 20:00:00 -- 8 Oeste 11 Oeste 0 1002.1 0.7 80
2020-03-13 19:00:00 -- 5 Oeste 21 Sudoeste 0 1001.8 -0.1 67
2020-03-13 18:00:00 -- 11 Oeste 22 Oeste 0 1001.3 -1.1 56
2020-03-13 17:00:00 -- 12 Oeste 23 Oeste 0 1001.4 -2.1 55
2020-03-13 16:00:00 -- 10 Oeste 19 Oeste 0 1001.9 -2.2 58
2020-03-13 15:00:00 -- 6 Oeste 18 Oeste 0 1002.4 -2.2 60
2020-03-13 14:00:00 -- 7 Oeste 16 Oeste 0 1003.5 -1.2 70
2020-03-13 13:00:00 -- 5 Oeste 14 Sudoeste 0 1004.1 -0.5 82
2020-03-13 12:00:00 -- 6 Sudoeste 15 Sudoeste 0 1004.6 0.5 86
2020-03-13 11:00:00 -- 6 Oeste 14 Oeste 0 1004.7 1.2 90
2020-03-13 10:00:00 -- 5 Noroeste 9 Noroeste 0 1004.6 1.3 94
2020-03-13 09:00:00 -- 3 Sudeste 6 Sudeste 0 1004.1 1.3 99
2020-03-13 08:00:00 -- 4 Sudeste 6 Sudeste 0 1003.5 0.7 99
2020-03-13 07:00:00 -- 4 Sudeste 8 Norte 0 1003.3 0.5 99
2020-03-13 06:00:00 -- 0 Calma 12 Noroeste 0 1002.8 -0.3 99
2020-03-13 05:00:00 -- 5 Norte 7 Sudoeste 0 1002.8 -0.5 98
2020-03-13 04:00:00 -- 6 Sudoeste 8 Sudoeste 0 1002.8 -0.9 98
2020-03-13 03:00:00 -- 0 Calma 4 Sudeste 0 1003.1 -0.7 96
2020-03-13 02:00:00 -- 2 Este 4 Nordeste 0 1003.3 -0.4 94
2020-03-13 01:00:00 -- 4 Este 10 Este 0 1003.7 0.1 91
2020-03-13 00:00:00 -- 0 Calma 15 Sudoeste 0 1003.8 0.7 88
2020-03-12 23:00:00 -- 12 Sudoeste 18 Oeste 0 1003.7 1.1 84
2020-03-12 22:00:00 -- 14 Sudoeste 24 Oeste 0 1003.6 1.6 76
2020-03-12 21:00:00 -- 9 Oeste 22 Oeste 0 1003.1 1.1 70
2020-03-12 20:00:00 -- 13 Oeste 17 Oeste 0 1002.6 0.5 72
2020-03-12 19:00:00 -- 13 Oeste 21 Oeste 0 1002 -0.3 60
2020-03-12 18:00:00 -- 10 Oeste 25 Oeste 0 1002 -0.9 54
2020-03-12 17:00:00 -- 11 Oeste 30 Oeste 0 1002.1 -1.8 46
2020-03-12 16:00:00 -- 13 Oeste 24 Oeste 0 1002.3 -2.6 37
2020-03-12 15:00:00 -- 8 Oeste 18 Oeste 0 1002.9 -2.6 37
2020-03-12 14:00:00 -- 9 Noroeste 17 Noroeste 0 1003.9 -1.7 39
2020-03-12 13:00:00 -- 7 Noroeste 15 Noroeste 0 1004.9 -0.7 42
2020-03-12 12:00:00 -- 5 Noroeste 10 Noroeste 0 1005.5 0.5 44
2020-03-12 11:00:00 -- 0 Calma 6 Este 0 1005.6 1.2 60
2020-03-12 10:00:00 -- 0 Calma 5 Este 0 1005.6 1.7 64
2020-03-12 09:00:00 -- 0 Calma 5 Sudoeste 0 1005 1.3 80
2020-03-12 08:00:00 -- 0 Calma 6 Norte 0 1004.4 0.7 80
2020-03-12 07:00:00 -- 3 Norte 7 Norte 0 1003.9 -0.4 83
2020-03-12 06:00:00 -- 0 Calma 11 Sudeste 0 1003.7 -1 82
2020-03-12 05:00:00 -- 8 Sur 12 Sur 0 1003.7 -1.5 88
2020-03-12 04:00:00 -- 0 Calma 6 Sudeste 0 1004.3 -0.6 82
2020-03-12 03:00:00 -- 0 Calma 5 Este 0 1004.7 -0.7 83
2020-03-12 02:00:00 -- 3 Sudoeste 8 Sudoeste 0 1005.2 -0.1 73
2020-03-12 01:00:00 -- 5 Sur 10 Sur 0 1004.9 -0.3 71
2020-03-12 00:00:00 -- 4 Sur 6 Sur 0 1005.4 0.3 71
2020-03-11 23:00:00 -- 0 Calma 5 Sudeste 0 1005.3 0.3 69
2020-03-11 22:00:00 -- 0 Calma 5 Sudoeste 0 1005.2 0.6 62
2020-03-11 21:00:00 -- 2 Sudoeste 4 Sudoeste 0 1005.1 0.4 48
2020-03-11 20:00:00 -- 3 Sur 10 Sudoeste 0 1005 0 44
2020-03-11 19:00:00 -- 4 Sur 13 Sur 0 1004.6 -0.8 47
2020-03-11 18:00:00 -- 9 Sur 16 Sur 0 1004.7 -1.3 35
2020-03-11 17:00:00 -- 2 Este 7 Norte 0 1005 -2 50
2020-03-11 16:00:00 -- 4 Norte 9 Norte 0 1005.4 -2.7 29
2020-03-11 15:00:00 -- 3 Norte 9 Nordeste 0 1006 -2.7 30
2020-03-11 14:00:00 -- 2 Norte 10 Nordeste 0 1007 -2.2 32
2020-03-11 13:00:00 -- 4 Este 9 Este 0 1008.1 -1.2 41
2020-03-11 12:00:00 -- 3 Este 11 Nordeste 0 1008.7 -0.4 51
2020-03-11 11:00:00 -- 4 Nordeste 11 Este 0 1009.2 0.4 57
2020-03-11 10:00:00 -- 4 Este 9 Este 0 1009.3 0.8 65
2020-03-11 09:00:00 -- 3 Norte 5 Norte 0 1009.1 0.8 75
2020-03-11 08:00:00 -- 3 Sudoeste 5 Sudoeste 0 1008.8 0.1 89
2020-03-11 07:00:00 -- 2 Sudeste 4 Sudeste 0 1008.5 -0.5 83
2020-03-11 06:00:00 -- 2 Sudoeste 7 Sudeste 0 1008.3 -0.8 83
2020-03-11 05:00:00 -- 4 Sur 6 Sur 0 1008.7 -0.8 85
2020-03-11 04:00:00 -- 3 Sur 7 Sur 0 1009 -0.8 84
2020-03-11 03:00:00 -- 2 Norte 7 Sudoeste 0 1009.1 -0.7 87
2020-03-11 02:00:00 -- 0 Calma 5 Sur 0 1009.5 -0.3 79
2020-03-11 01:00:00 -- 0 Calma 4 Sudoeste 0 1009.8 0.1 74
2020-03-11 00:00:00 -- 0 Calma 7 Sudeste 0 1009.8 0.1 73